Time;durP1;ratioP1;P1;durP2;ratioP2;P2;SDS_P1;SDS_P2;PMS_P1;PMS_P2;Temp;Humidity;BMP_temperature;BMP_pressure;BME280_temperature;BME280_humidity;BME280_pressure;Samples;Min_cycle;Max_cycle;Signal;HPM_P1;HPM_P2
2021/11/10 00:04:43;;;;;;;35.70;20.70;;;;;;;2.96;80.03;101338.45;229494;1198;141848;-67
2021/11/10 00:09:47;;;;;;;32.50;18.70;;;;;;;2.90;80.04;101347.70;226577;1197;139959;-66
2021/11/10 00:14:50;;;;;;;37.60;18.60;;;;;;;2.96;80.07;101358.19;226450;1198;141447;-66
2021/11/10 00:19:57;;;;;;;33.70;20.50;;;;;;;2.99;80.36;101354.33;227786;1198;141864;-66
2021/11/10 00:25:00;;;;;;;34.20;21.20;;;;;;;2.99;80.57;101341.41;227790;1197;142123;-66
2021/11/10 00:30:30;;;;;;;34.00;18.80;;;;;;;2.94;80.58;101339.54;226419;1197;141054;-66
2021/11/10 00:35:34;;;;;;;36.40;21.90;;;;;;;3.00;80.80;101349.30;226927;1197;140595;-66
2021/11/10 00:40:38;;;;;;;35.60;23.20;;;;;;;3.06;80.89;101351.10;226879;1196;142353;-66
2021/11/10 00:45:42;;;;;;;37.70;20.90;;;;;;;3.08;80.97;101355.20;226072;1198;140404;-66
2021/11/10 00:50:45;;;;;;;37.70;19.60;;;;;;;3.09;81.01;101359.36;227334;1197;230873;-66
2021/11/10 00:56:07;;;;;;;42.30;22.50;;;;;;;3.10;80.84;101359.25;227594;1198;141521;-66
2021/11/10 01:01:11;;;;;;;40.40;22.00;;;;;;;3.02;80.59;101360.74;226331;1199;139571;-66
2021/11/10 01:06:17;;;;;;;36.80;19.50;;;;;;;2.96;80.81;101364.15;226606;1197;140924;-66
2021/11/10 01:11:41;;;;;;;38.80;21.50;;;;;;;2.97;80.88;101360.83;228328;1197;139877;-66
2021/11/10 01:17:09;;;;;;;34.80;20.60;;;;;;;3.01;81.06;101362.45;226337;1198;140390;-66
2021/11/10 01:22:17;;;;;;;31.80;19.80;;;;;;;2.95;81.04;101351.93;227113;1197;140058;-66
2021/11/10 01:27:34;;;;;;;;;;;;;;;;;;;;;
2021/11/10 01:32:37;;;;;;;40.80;22.10;;;;;;;2.91;81.15;101331.20;228017;1198;140928;-66
2021/11/10 01:37:41;;;;;;;38.00;23.10;;;;;;;2.92;81.28;101322.39;228245;1196;140231;-65
2021/11/10 01:42:46;;;;;;;40.10;19.80;;;;;;;2.93;81.20;101314.40;229293;1198;140051;-66
2021/11/10 01:47:52;;;;;;;35.90;20.40;;;;;;;2.95;81.63;101303.80;228965;1197;160583;-67
2021/11/10 01:52:55;;;;;;;32.90;19.80;;;;;;;3.02;81.37;101303.32;229270;1197;140217;-68
2021/11/10 01:58:03;;;;;;;33.40;19.00;;;;;;;3.06;81.32;101310.14;229232;1197;141622;-67
2021/11/10 02:03:09;;;;;;;32.90;19.10;;;;;;;3.06;81.26;101313.66;229220;1197;138959;-67
2021/11/10 02:08:12;;;;;;;35.40;17.30;;;;;;;3.04;81.13;101306.14;227252;1185;139399;-66
2021/11/10 02:13:16;;;;;;;38.10;20.50;;;;;;;3.06;81.12;101299.42;229426;1198;140253;-66
2021/11/10 02:18:20;;;;;;;36.70;21.80;;;;;;;3.09;81.35;101301.29;226515;1198;143572;-66
2021/11/10 02:23:26;;;;;;;40.40;22.20;;;;;;;3.10;81.58;101293.58;227543;1198;140949;-66
2021/11/10 02:28:31;;;;;;;37.40;18.60;;;;;;;3.15;81.51;101277.69;226992;1198;140366;-64
2021/11/10 02:33:35;;;;;;;38.30;21.60;;;;;;;3.18;81.42;101280.16;226769;1196;141562;-65
2021/11/10 02:38:39;;;;;;;36.10;21.50;;;;;;;3.23;81.65;101275.77;226369;1198;140315;-65
2021/11/10 02:43:42;;;;;;;36.50;19.80;;;;;;;3.20;81.57;101272.71;228074;1198;139801;-66
2021/11/10 02:48:48;;;;;;;39.00;20.00;;;;;;;3.22;81.47;101271.17;227222;1198;140585;-65
2021/11/10 02:54:01;;;;;;;35.20;21.40;;;;;;;3.24;81.54;101263.04;226688;1198;141490;-66
2021/11/10 02:59:09;;;;;;;34.20;18.90;;;;;;;3.18;81.34;101261.91;227947;1198;139337;-65
2021/11/10 03:04:42;;;;;;;;;;;;;;;;;;;;;
2021/11/10 03:09:45;;;;;;;33.50;20.10;;;;;;;3.12;81.32;101245.24;226283;1198;139951;-67
2021/11/10 03:14:48;;;;;;;35.10;20.10;;;;;;;3.14;81.60;101241.94;227030;1198;141134;-66
2021/11/10 03:19:56;;;;;;;33.10;18.70;;;;;;;3.09;81.73;101235.39;227022;1198;140299;-66
2021/11/10 03:25:00;;;;;;;29.80;17.60;;;;;;;3.05;81.67;101234.55;226873;1198;142240;-66
2021/11/10 03:30:14;;;;;;;35.60;20.50;;;;;;;3.04;81.36;101234.06;227570;1196;140479;-66
2021/11/10 03:35:19;;;;;;;36.20;20.60;;;;;;;3.06;81.47;101228.27;228144;1198;141401;-66
2021/11/10 03:40:22;;;;;;;33.50;20.90;;;;;;;3.00;81.41;101218.30;227525;1197;141205;-66
2021/11/10 03:45:29;;;;;;;39.70;20.60;;;;;;;2.95;81.49;101206.17;228111;1197;144182;-66
2021/11/10 03:50:53;;;;;;;34.90;18.60;;;;;;;3.00;81.59;101201.84;227759;1197;140852;-66
2021/11/10 03:55:56;;;;;;;29.00;16.00;;;;;;;3.07;81.56;101202.55;229317;1197;141028;-66
2021/11/10 04:00:59;;;;;;;33.70;19.60;;;;;;;3.08;81.57;101193.03;229765;1197;139952;-66
2021/11/10 04:06:03;;;;;;;26.80;15.50;;;;;;;3.11;81.71;101189.70;228642;1197;140432;-66
2021/11/10 04:11:07;;;;;;;28.80;17.30;;;;;;;3.22;81.64;101188.44;228408;1197;141155;-66
2021/11/10 04:16:19;;;;;;;38.60;17.30;;;;;;;3.32;81.69;101190.41;227769;1198;141131;-66
2021/11/10 04:21:24;;;;;;;27.70;15.40;;;;;;;3.37;81.68;101187.04;227585;1198;140816;-66
2021/11/10 04:27:19;;;;;;;27.60;15.10;;;;;;;3.38;81.60;101183.25;226968;1197;140251;-66
2021/11/10 04:32:23;;;;;;;26.40;17.50;;;;;;;3.46;81.76;101180.59;226226;1196;140687;-66
2021/11/10 04:37:36;;;;;;;28.40;17.20;;;;;;;3.47;81.58;101169.91;226650;1197;140549;-66
2021/11/10 04:43:01;;;;;;;29.60;17.10;;;;;;;3.42;81.52;101171.29;226117;1197;143039;-66
2021/11/10 04:48:14;;;;;;;32.30;16.50;;;;;;;3.36;81.43;101169.08;227939;1197;139394;-66
2021/11/10 04:53:33;;;;;;;38.40;19.90;;;;;;;3.37;81.43;101164.93;227427;1197;140283;-66
2021/11/10 04:58:49;;;;;;;27.40;17.90;;;;;;;3.39;81.42;101161.02;226365;1196;140394;-66
2021/11/10 05:03:56;;;;;;;28.30;19.70;;;;;;;3.34;81.24;101151.87;226908;1197;139412;-66
2021/11/10 05:08:59;;;;;;;28.80;17.60;;;;;;;3.26;81.01;101155.69;227509;1198;140295;-66
2021/11/10 05:14:02;;;;;;;33.90;19.50;;;;;;;3.26;80.98;101156.77;226990;1198;141898;-66
2021/11/10 05:19:50;;;;;;;;;;;;;;;;;;;;;
2021/11/10 05:25:25;;;;;;;33.70;21.90;;;;;;;3.14;80.96;101168.00;227219;1196;139764;-65
2021/11/10 05:30:28;;;;;;;45.30;18.30;;;;;;;3.11;81.06;101171.29;227732;1198;139060;-65
2021/11/10 05:35:34;;;;;;;37.70;21.20;;;;;;;3.09;80.76;101173.95;228264;1197;140207;-66
2021/11/10 05:40:49;;;;;;;30.20;18.60;;;;;;;3.01;80.69;101170.41;227749;1198;142672;-65
2021/11/10 05:46:02;;;;;;;35.90;19.80;;;;;;;2.98;80.92;101170.94;226456;1197;139402;-70
2021/11/10 05:51:06;;;;;;;36.60;18.00;;;;;;;2.95;80.80;101169.27;229018;1196;140628;-65
2021/11/10 05:56:18;;;;;;;30.40;17.90;;;;;;;2.94;80.57;101169.44;227810;1198;139469;-66
2021/11/10 06:01:34;;;;;;;31.80;19.80;;;;;;;2.89;80.66;101174.80;227250;1197;139510;-65
2021/11/10 06:06:37;;;;;;;29.60;18.40;;;;;;;2.84;80.46;101168.81;229165;1198;140302;-66
2021/11/10 06:11:51;;;;;;;;;;;;;;;;;;;;;
2021/11/10 06:16:56;;;;;;;36.30;21.50;;;;;;;2.79;80.22;101171.02;228250;1198;140092;-64
2021/11/10 06:22:00;;;;;;;30.50;18.80;;;;;;;2.78;80.22;101170.48;226690;1198;141717;-64
2021/11/10 06:27:03;;;;;;;30.50;18.20;;;;;;;2.75;80.42;101179.73;228483;1196;141173;-63
2021/11/10 06:32:06;;;;;;;32.30;18.20;;;;;;;2.76;80.46;101179.95;227778;1198;141046;-64
2021/11/10 06:37:08;;;;;;;37.00;20.50;;;;;;;2.83;80.31;101189.08;229165;1196;140176;-64
2021/11/10 06:42:23;;;;;;;34.10;19.10;;;;;;;2.88;80.62;101188.08;228946;1198;141237;-67
2021/11/10 06:47:27;;;;;;;32.10;21.00;;;;;;;2.94;80.88;101188.58;228130;1198;139754;-64
2021/11/10 06:52:31;;;;;;;36.60;20.30;;;;;;;3.01;80.58;101183.48;227952;1197;139894;-66
2021/11/10 06:57:34;;;;;;;39.80;21.90;;;;;;;3.06;80.55;101178.41;226366;1198;143109;-63
2021/11/10 07:02:38;;;;;;;37.00;21.20;;;;;;;3.11;80.66;101183.71;226503;1198;141126;-67
2021/11/10 07:07:45;;;;;;;26.50;16.30;;;;;;;3.16;80.97;101180.20;227680;1198;141462;-66
2021/11/10 07:12:49;;;;;;;34.40;17.80;;;;;;;3.20;80.72;101173.69;227155;1198;140977;-64
2021/11/10 07:18:02;;;;;;;39.00;20.50;;;;;;;3.31;80.99;101172.11;227458;1198;141121;-64
2021/11/10 07:23:08;;;;;;;34.00;20.70;;;;;;;3.42;81.03;101167.13;228992;1197;140074;-67
2021/11/10 07:28:43;;;;;;;38.70;19.70;;;;;;;3.47;80.88;101166.03;226536;1198;139051;-67
2021/11/10 07:33:45;;;;;;;36.70;20.60;;;;;;;3.64;80.97;101163.58;226441;1196;140492;-70
2021/11/10 07:38:57;;;;;;;39.50;21.60;;;;;;;3.78;81.27;101157.23;228031;1197;139247;-70
2021/11/10 07:44:01;;;;;;;36.30;19.70;;;;;;;3.92;81.33;101154.93;227736;1197;139819;-71
2021/11/10 07:49:27;;;;;;;36.50;18.50;;;;;;;4.10;81.32;101148.70;228286;1197;141376;-72
2021/11/10 07:54:31;;;;;;;33.60;17.30;;;;;;;4.26;80.71;101142.61;229500;1197;140069;-71
2021/11/10 07:59:43;;;;;;;37.60;18.70;;;;;;;4.37;81.06;101141.14;226383;1198;141481;-71
2021/11/10 08:04:57;;;;;;;33.20;17.50;;;;;;;4.51;80.70;101142.66;227739;1197;141301;-69
2021/11/10 08:10:03;;;;;;;30.50;17.90;;;;;;;4.71;80.93;101146.55;227285;1198;139876;-69
2021/11/10 08:15:26;;;;;;;;;;;;;;;;;;;;;
2021/11/10 08:20:29;;;;;;;32.50;17.30;;;;;;;5.05;80.66;101141.65;229452;1196;141283;-70
2021/11/10 08:25:44;;;;;;;;;;;;;;;;;;;;;
2021/11/10 08:31:02;;;;;;;24.90;16.20;;;;;;;5.43;80.32;101130.77;228547;1198;140426;-68
2021/11/10 08:36:06;;;;;;;33.60;17.90;;;;;;;5.60;80.19;101136.48;227690;1198;140160;-68
2021/11/10 08:41:22;;;;;;;;;;;;;;;;;;;;;
2021/11/10 08:46:25;;;;;;;27.80;14.30;;;;;;;5.88;79.34;101126.05;227144;1198;143220;-71
2021/11/10 08:51:29;;;;;;;26.50;17.30;;;;;;;5.99;79.64;101118.91;227424;1196;140498;-70
2021/11/10 08:56:51;;;;;;;28.90;16.00;;;;;;;6.12;79.39;101116.27;226572;1198;140856;-70
2021/11/10 09:02:01;;;;;;;19.40;13.10;;;;;;;6.28;79.89;101117.50;227025;1199;139944;-70
2021/11/10 09:07:16;;;;;;;;;;;;;;;;;;;;;
2021/11/10 09:12:50;;;;;;;24.60;15.50;;;;;;;6.54;79.31;101115.53;226653;1196;143244;-72
2021/11/10 09:17:53;;;;;;;13.90;10.10;;;;;;;6.70;79.18;101114.98;226673;1198;139372;-71
2021/11/10 09:22:58;;;;;;;16.80;12.00;;;;;;;6.86;79.15;101106.73;226579;1196;140060;-69
2021/11/10 09:28:03;;;;;;;17.90;11.80;;;;;;;7.06;78.92;101106.67;226767;1198;139756;-72
2021/11/10 09:33:15;;;;;;;19.70;11.80;;;;;;;7.21;78.89;101104.57;226965;1198;140374;-70
2021/11/10 09:38:19;;;;;;;15.60;10.90;;;;;;;7.35;78.49;101098.14;226815;1198;139502;-70
2021/11/10 09:43:58;;;;;;;;;;;;;;;;;;;;;
2021/11/10 09:49:39;;;;;;;17.90;9.90;;;;;;;7.65;78.14;101087.89;227667;1198;139901;-70
2021/11/10 09:54:43;;;;;;;13.30;11.20;;;;;;;7.85;77.50;101081.10;227664;1198;139768;-68
2021/11/10 09:59:52;;;;;;;16.50;9.70;;;;;;;8.00;77.25;101083.27;228789;1197;140465;-68
2021/11/10 10:05:26;;;;;;;13.20;9.20;;;;;;;8.18;76.59;101080.26;228186;1197;139375;-68
2021/11/10 10:11:11;;;;;;;11.30;9.40;;;;;;;8.40;76.31;101073.63;228121;1197;140510;-68
2021/11/10 10:16:22;;;;;;;22.30;11.10;;;;;;;8.56;75.90;101071.43;228376;1197;139333;-70
2021/11/10 10:21:31;;;;;;;16.90;10.60;;;;;;;8.72;75.59;101072.40;229548;1196;139283;-68
2021/11/10 10:27:00;;;;;;;13.00;9.30;;;;;;;8.92;75.11;101063.63;229583;1197;140253;-68
2021/11/10 10:32:06;;;;;;;14.10;8.90;;;;;;;9.11;74.52;101047.17;229584;1197;139637;-68
2021/11/10 10:37:51;;;;;;;;;;;;;;;;;;;;;
2021/11/10 10:43:04;;;;;;;11.70;7.70;;;;;;;9.52;73.85;101037.40;226519;1198;139420;-67
2021/11/10 10:48:13;;;;;;;11.50;8.30;;;;;;;9.66;73.47;101030.05;228074;1197;140420;-68
2021/11/10 10:54:04;;;;;;;14.70;8.90;;;;;;;9.75;73.11;101025.14;227271;1196;234095;-67
2021/11/10 10:59:15;;;;;;;12.90;9.00;;;;;;;9.86;72.63;101018.16;228091;1197;139468;-68
2021/11/10 11:05:11;;;;;;;;;;;;;;;;;;;;;
2021/11/10 11:10:17;;;;;;;12.90;8.40;;;;;;;10.18;72.09;101002.17;226405;1198;139852;-68
2021/11/10 11:21:41;;;;;;;;;;;;;;;;;;;;;
2021/11/10 11:26:45;;;;;;;13.30;8.10;;;;;;;10.62;70.94;100971.77;226927;1197;140831;-67
2021/11/10 11:31:58;;;;;;;12.50;8.70;;;;;;;10.77;70.65;100955.38;226898;1198;139534;-68
2021/11/10 11:37:14;;;;;;;14.30;7.60;;;;;;;10.87;70.03;100949.67;226505;1197;140765;-67
2021/11/10 11:43:27;;;;;;;11.30;6.60;;;;;;;10.95;69.23;100947.25;227358;1198;151795;-68
2021/11/10 11:48:40;;;;;;;11.20;7.10;;;;;;;10.96;68.64;100941.02;227419;1199;141425;-68
2021/11/10 11:53:46;;;;;;;10.70;7.20;;;;;;;11.00;68.67;100938.73;227317;1199;140316;-69
2021/11/10 11:58:58;;;;;;;9.10;7.00;;;;;;;11.08;68.29;100939.37;226960;1199;141116;-68
2021/11/10 12:04:17;;;;;;;10.60;7.10;;;;;;;11.17;67.98;100939.06;226395;1200;140052;-70
2021/11/10 12:10:00;;;;;;;14.00;8.00;;;;;;;11.24;67.80;100929.90;226429;1199;139554;-68
2021/11/10 12:15:14;;;;;;;11.00;7.40;;;;;;;11.27;67.67;100922.54;227064;1199;139869;-67
2021/11/10 12:20:47;;;;;;;8.10;6.50;;;;;;;11.28;67.18;100915.11;229226;1197;140361;-69
2021/11/10 12:26:04;;;;;;;13.50;7.80;;;;;;;11.23;66.77;100911.05;229428;1197;139857;-69
2021/11/10 12:31:41;;;;;;;10.50;8.00;;;;;;;11.26;66.69;100908.30;229336;1197;139912;-69
2021/11/10 12:37:30;;;;;;;13.00;9.30;;;;;;;11.30;66.49;100902.78;228056;1197;141055;-68
2021/11/10 12:43:09;;;;;;;10.80;7.50;;;;;;;11.25;66.32;100905.63;227667;1198;140291;-69
2021/11/10 12:48:42;;;;;;;;;;;;;;;;;;;;;
2021/11/10 12:54:11;;;;;;;9.10;6.80;;;;;;;11.11;66.29;100898.23;226601;1197;139820;-70
2021/11/10 12:59:40;;;;;;;10.80;7.10;;;;;;;11.07;66.08;100896.64;227503;1197;139563;-69
2021/11/10 13:05:28;;;;;;;13.60;9.50;;;;;;;11.04;66.18;100890.92;226646;1196;140414;-68
2021/11/10 13:10:34;;;;;;;11.90;8.80;;;;;;;11.10;66.00;100885.88;227925;1198;141348;-68
2021/11/10 13:16:16;;;;;;;;;;;;;;;;;;;;;
2021/11/10 13:21:32;;;;;;;14.00;8.90;;;;;;;11.07;65.96;100876.39;226474;1198;140308;-68
2021/11/10 13:27:00;;;;;;;11.30;8.40;;;;;;;11.03;65.82;100874.39;226775;1198;139677;-68
2021/11/10 13:32:59;;;;;;;;;;;;;;;;;;;;;
2021/11/10 13:38:03;;;;;;;12.30;7.00;;;;;;;10.70;66.15;100869.18;226790;1198;140130;-68
2021/11/10 13:43:06;;;;;;;10.70;7.70;;;;;;;10.58;66.09;100865.52;226324;1198;139120;-72
2021/11/10 13:48:10;;;;;;;16.10;8.90;;;;;;;10.51;66.01;100864.86;227424;1197;139872;-75
2021/11/10 13:53:22;;;;;;;9.90;7.50;;;;;;;10.42;66.30;100863.18;228135;1197;140504;-74
2021/11/10 13:58:25;;;;;;;13.40;8.50;;;;;;;10.35;66.40;100862.27;226895;1198;141770;-70
2021/11/10 14:03:30;;;;;;;16.10;8.50;;;;;;;10.28;66.48;100860.20;228813;1197;140850;-72
2021/11/10 14:08:34;;;;;;;12.50;8.50;;;;;;;10.19;66.65;100862.36;227311;1197;140743;-68
2021/11/10 14:13:37;;;;;;;12.80;8.10;;;;;;;10.11;66.57;100854.63;228658;1198;140904;-69
2021/11/10 14:18:41;;;;;;;9.10;7.60;;;;;;;10.01;66.55;100846.68;228716;1197;141176;-67
2021/11/10 14:23:44;;;;;;;13.10;8.10;;;;;;;9.90;66.78;100847.27;229296;1197;139843;-69
2021/11/10 14:28:47;;;;;;;15.40;9.20;;;;;;;9.77;66.62;100842.35;228081;1197;141104;-66
2021/11/10 14:34:08;;;;;;;15.80;9.10;;;;;;;9.62;66.66;100828.80;229430;1197;140469;-67
2021/11/10 14:39:24;;;;;;;15.40;8.80;;;;;;;9.53;66.75;100828.77;229143;1196;141451;-67
2021/11/10 14:44:31;;;;;;;13.20;7.80;;;;;;;9.42;66.85;100835.10;229055;1197;139794;-69
2021/11/10 14:49:35;;;;;;;11.60;8.50;;;;;;;9.31;66.95;100836.04;227939;1197;139690;-67
2021/11/10 14:54:46;;;;;;;11.80;7.10;;;;;;;9.20;67.11;100828.35;227428;1197;141215;-68
2021/11/10 15:00:00;;;;;;;14.60;9.00;;;;;;;9.06;67.18;100823.75;225991;1198;141452;-69
2021/11/10 15:05:23;;;;;;;10.50;7.10;;;;;;;8.88;67.24;100822.72;227276;1197;140852;-70
2021/11/10 15:10:33;;;;;;;14.40;8.50;;;;;;;8.72;67.33;100828.13;228043;1197;139424;-67
2021/11/10 15:15:55;;;;;;;12.00;8.90;;;;;;;8.59;67.39;100824.11;227803;1197;140473;-67
2021/11/10 15:21:13;;;;;;;15.10;9.20;;;;;;;8.49;67.07;100824.31;226590;1197;140086;-67
2021/11/10 15:26:16;;;;;;;14.90;8.80;;;;;;;8.36;67.49;100820.27;228248;1198;139094;-68
2021/11/10 15:31:33;;;;;;;14.80;8.40;;;;;;;8.24;67.76;100821.40;226802;1197;139647;-68
2021/11/10 15:37:09;;;;;;;12.70;9.00;;;;;;;8.13;67.73;100816.70;227914;1197;140582;-68
2021/11/10 15:42:14;;;;;;;24.80;13.10;;;;;;;7.92;67.75;100808.14;226289;1197;139529;-67
2021/11/10 15:47:18;;;;;;;18.70;11.20;;;;;;;7.72;67.94;100809.88;226094;1197;139970;-66
2021/11/10 15:52:25;;;;;;;21.50;12.30;;;;;;;7.59;67.92;100803.73;227839;1197;139801;-68
2021/11/10 15:57:28;;;;;;;24.70;12.20;;;;;;;7.53;68.08;100808.06;226746;1197;140598;-67
2021/11/10 16:02:31;;;;;;;18.70;12.30;;;;;;;7.47;68.09;100809.70;227864;1198;140772;-68
2021/11/10 16:07:35;;;;;;;17.20;10.90;;;;;;;7.38;68.25;100814.34;227098;1198;139460;-68
2021/11/10 16:12:41;;;;;;;15.60;10.50;;;;;;;7.27;68.67;100821.30;226582;1198;140032;-67
2021/11/10 16:17:54;;;;;;;23.30;14.50;;;;;;;7.16;68.63;100823.23;227819;1197;143092;-67
2021/11/10 16:22:59;;;;;;;24.70;15.20;;;;;;;7.02;68.45;100817.89;228421;1197;139795;-69
2021/11/10 16:28:30;;;;;;;28.20;15.30;;;;;;;6.85;68.38;100823.98;226772;1198;141343;-69
2021/11/10 16:33:29;;;;;;;28.40;15.30;;;;;;;6.75;68.79;100826.88;229235;1197;140731;-68
2021/11/10 16:38:31;;;;;;;37.60;20.20;;;;;;;6.60;68.84;100824.27;229320;1196;140869;-70
2021/11/10 16:43:37;;;;;;;36.70;19.40;;;;;;;6.44;68.50;100818.84;229027;1198;140274;-68
2021/11/10 16:48:42;;;;;;;51.20;24.70;;;;;;;6.32;69.12;100820.55;227890;1197;139904;-67
2021/11/10 16:54:10;;;;;;;;;;;;;;;;;;;;;
2021/11/10 16:59:17;;;;;;;92.30;33.80;;;;;;;6.05;69.34;100811.73;228030;1198;141058;-68
2021/11/10 17:04:20;;;;;;;50.10;24.50;;;;;;;5.89;68.85;100803.75;226751;1197;140412;-68
2021/11/10 17:09:46;;;;;;;;;;;;;;;;;;;;;
2021/11/10 17:15:15;;;;;;;59.50;28.70;;;;;;;5.60;70.08;100793.52;226276;1198;140305;-68
2021/11/10 17:20:39;;;;;;;62.70;31.10;;;;;;;5.55;70.15;100789.17;226886;1198;140063;-68
2021/11/10 17:26:08;;;;;;;49.40;28.10;;;;;;;5.52;70.49;100790.96;226164;1198;139813;-68
2021/11/10 17:31:13;;;;;;;37.70;20.40;;;;;;;5.52;70.90;100786.15;227698;1197;139791;-68
2021/11/10 17:36:16;;;;;;;44.20;22.80;;;;;;;5.59;71.32;100783.23;226303;1197;139766;-69
2021/11/10 17:41:19;;;;;;;39.00;21.40;;;;;;;5.64;71.64;100778.54;226357;1196;139980;-69
2021/11/10 17:46:34;;;;;;;;;;;;;;;;;;;;;
2021/11/10 17:51:38;;;;;;;38.40;21.80;;;;;;;5.63;71.78;100770.54;227290;1197;139807;-66
2021/11/10 17:56:44;;;;;;;27.30;18.00;;;;;;;5.63;71.93;100768.98;226391;1197;139462;-67
2021/11/10 18:01:47;;;;;;;40.50;23.30;;;;;;;5.69;71.84;100761.90;226503;1197;140414;-68
2021/11/10 18:07:06;;;;;;;;;;;;;;;;;;;;;
2021/11/10 18:12:09;;;;;;;37.50;22.20;;;;;;;5.74;72.59;100756.48;228515;1197;139637;-67
2021/11/10 18:17:13;;;;;;;41.40;24.50;;;;;;;5.76;72.65;100760.95;228669;1197;140168;-69
2021/11/10 18:22:18;;;;;;;43.50;25.40;;;;;;;5.75;72.70;100749.27;227158;1198;139770;-68
2021/11/10 18:27:25;;;;;;;38.90;23.10;;;;;;;5.79;72.57;100745.63;229486;1197;139653;-70
2021/11/10 18:32:31;;;;;;;41.80;24.20;;;;;;;5.78;72.55;100738.73;229272;1196;140033;-68
2021/11/10 18:37:42;;;;;;;37.20;24.40;;;;;;;5.76;72.87;100739.47;229286;1197;141418;-68
2021/11/10 18:42:47;;;;;;;44.10;26.50;;;;;;;5.71;72.97;100732.06;228929;1197;139775;-69
2021/11/10 18:47:51;;;;;;;42.40;23.60;;;;;;;5.66;72.72;100733.39;229339;1196;139916;-68
2021/11/10 18:53:01;;;;;;;43.80;26.70;;;;;;;5.65;72.62;100724.27;226589;1198;140297;-68
2021/11/10 18:58:17;;;;;;;51.60;30.50;;;;;;;5.61;72.79;100723.77;227990;1198;250736;-68
2021/11/10 19:20:13;;;;;;;41.40;27.60;;;;;;;5.47;73.70;100713.95;226167;1197;140804;-69
2021/11/10 19:25:17;;;;;;;53.90;26.10;;;;;;;5.44;73.58;100717.48;226198;1198;139912;-68
2021/11/10 19:30:46;;;;;;;38.40;23.10;;;;;;;5.38;73.89;100721.98;227414;1197;140405;-68
2021/11/10 19:35:52;;;;;;;36.40;22.10;;;;;;;5.32;73.97;100717.39;226015;1198;139080;-68
2021/11/10 19:40:59;;;;;;;39.70;25.00;;;;;;;5.35;74.37;100716.94;226925;1198;140541;-67
2021/11/10 19:46:11;;;;;;;38.80;22.90;;;;;;;5.39;74.40;100718.98;226240;1198;139599;-67
2021/11/10 19:51:16;;;;;;;36.50;22.20;;;;;;;5.38;74.44;100720.42;226199;1198;139309;-68
2021/11/10 19:56:23;;;;;;;39.10;19.90;;;;;;;5.36;74.19;100722.49;227348;1198;140543;-68
2021/11/10 20:01:30;;;;;;;35.10;24.20;;;;;;;5.36;74.08;100712.54;226452;1198;143034;-68
2021/11/10 20:06:35;;;;;;;48.30;23.20;;;;;;;5.33;74.48;100711.02;227969;1198;140009;-68
2021/11/10 20:11:39;;;;;;;39.70;22.80;;;;;;;5.23;74.12;100710.06;228167;1197;142353;-69
2021/11/10 20:16:45;;;;;;;31.10;19.40;;;;;;;5.10;74.11;100713.29;226356;1198;140922;-68
2021/11/10 20:21:52;;;;;;;34.60;20.30;;;;;;;5.04;74.02;100710.11;226689;1198;140263;-68
2021/11/10 20:27:30;;;;;;;37.60;24.20;;;;;;;4.93;73.78;100708.30;229051;1198;140294;-69
2021/11/10 20:32:35;;;;;;;29.90;15.70;;;;;;;4.76;73.57;100713.70;228684;1197;139716;-68
2021/11/10 20:37:39;;;;;;;28.10;18.30;;;;;;;4.52;73.35;100714.59;228649;1198;140119;-68
2021/11/10 20:42:48;;;;;;;29.30;21.20;;;;;;;4.43;73.41;100728.81;228233;1197;141306;-68
2021/11/10 20:48:01;;;;;;;42.30;20.90;;;;;;;4.32;73.71;100728.21;228424;1198;140174;-68
2021/11/10 20:53:18;;;;;;;30.50;19.80;;;;;;;4.24;74.03;100724.36;228325;1197;142557;-68
2021/11/10 20:58:25;;;;;;;34.80;20.20;;;;;;;4.15;73.84;100715.61;228259;1196;140663;-68
2021/11/10 21:03:29;;;;;;;36.50;19.50;;;;;;;4.03;73.81;100714.44;228302;1197;140478;-68
2021/11/10 21:08:43;;;;;;;35.20;22.40;;;;;;;3.97;73.86;100717.44;227221;1190;140194;-68
2021/11/10 21:13:48;;;;;;;44.60;25.20;;;;;;;3.87;73.96;100723.29;227247;1196;140279;-68
2021/11/10 21:18:51;;;;;;;43.50;26.60;;;;;;;3.68;73.70;100726.50;227836;1196;141379;-68
2021/11/10 21:23:54;;;;;;;37.30;23.30;;;;;;;3.50;73.97;100725.02;226529;1198;140121;-68
2021/11/10 21:29:00;;;;;;;41.10;21.50;;;;;;;3.37;74.15;100720.80;226986;1196;139580;-68
2021/11/10 21:34:06;;;;;;;42.10;24.30;;;;;;;3.31;74.01;100722.36;226494;1200;139812;-67
2021/11/10 21:39:14;;;;;;;49.40;26.00;;;;;;;3.21;74.22;100723.75;226620;1197;141260;-67
2021/11/10 21:44:18;;;;;;;48.30;27.20;;;;;;;3.14;74.77;100718.36;227457;1196;140655;-68
2021/11/10 21:49:23;;;;;;;42.40;22.30;;;;;;;3.08;74.53;100721.81;227804;1197;140399;-68
2021/11/10 21:54:47;;;;;;;38.40;24.00;;;;;;;3.09;74.86;100721.12;227639;1196;139571;-68
2021/11/10 22:00:00;;;;;;;41.20;27.00;;;;;;;3.05;74.86;100717.51;227660;1198;249590;-68
2021/11/10 22:05:05;;;;;;;46.20;28.00;;;;;;;2.95;74.73;100719.44;226844;1198;139582;-68
2021/11/10 22:10:08;;;;;;;48.80;28.90;;;;;;;2.85;75.04;100725.59;227369;1197;139334;-68
2021/11/10 22:15:12;;;;;;;47.40;25.60;;;;;;;2.81;75.19;100729.52;227682;1197;140575;-68
2021/11/10 22:20:21;;;;;;;44.30;27.70;;;;;;;2.81;75.05;100739.39;227416;1198;139631;-68
2021/11/10 22:25:25;;;;;;;42.30;28.10;;;;;;;2.76;75.27;100743.89;229488;1197;140155;-68
2021/11/10 22:30:29;;;;;;;51.30;27.20;;;;;;;2.69;75.23;100744.70;228972;1198;139142;-68
2021/11/10 22:35:31;;;;;;;38.60;23.80;;;;;;;2.61;75.40;100752.33;229545;1198;139269;-68
2021/11/10 22:40:36;;;;;;;41.80;22.40;;;;;;;2.60;75.57;100755.98;229737;1196;143311;-68
2021/11/10 22:46:02;;;;;;;35.50;22.50;;;;;;;2.70;75.60;100749.80;227317;1198;140094;-68
2021/11/10 22:51:07;;;;;;;39.30;25.10;;;;;;;2.78;75.96;100739.30;228743;1196;140148;-68
2021/11/10 22:56:12;;;;;;;48.50;25.10;;;;;;;2.86;76.32;100733.94;227012;1183;139818;-68
2021/11/10 23:01:15;;;;;;;53.50;25.70;;;;;;;2.91;76.29;100732.83;227461;1198;141302;-68
2021/11/10 23:06:19;;;;;;;50.60;28.90;;;;;;;2.93;75.87;100721.27;227471;1197;140893;-68
2021/11/10 23:11:22;;;;;;;49.30;26.20;;;;;;;2.77;75.90;100716.74;227206;1196;139474;-67
2021/11/10 23:16:26;;;;;;;38.80;18.90;;;;;;;2.66;76.13;100720.02;227678;1197;140926;-67
2021/11/10 23:21:30;;;;;;;45.80;21.00;;;;;;;2.59;76.25;100723.89;227766;1198;140240;-67
2021/11/10 23:26:34;;;;;;;38.60;22.30;;;;;;;2.61;76.27;100727.38;226865;1197;140215;-67
2021/11/10 23:31:58;;;;;;;42.20;22.70;;;;;;;2.65;76.60;100718.39;227434;1197;141438;-67
2021/11/10 23:37:02;;;;;;;35.10;20.40;;;;;;;2.70;76.97;100718.71;226541;1198;140861;-67
2021/11/10 23:42:06;;;;;;;36.40;18.10;;;;;;;2.74;76.89;100720.64;226345;1197;141086;-67
2021/11/10 23:47:10;;;;;;;35.50;22.10;;;;;;;2.81;77.01;100723.00;226708;1198;143803;-67
2021/11/10 23:52:12;;;;;;;40.00;21.60;;;;;;;2.80;77.07;100724.18;227398;1198;140464;-67
2021/11/10 23:57:15;;;;;;;38.30;20.90;;;;;;;2.81;77.31;100723.70;227108;1198;140062;-67
